createdAt,value
2018-01-20T00:00:46.411Z,982.73
2018-01-20T00:01:45.928Z,982.74
2018-01-20T00:03:39.741Z,982.66
2018-01-20T00:04:39.637Z,982.73
2018-01-20T00:06:33.874Z,982.72
2018-01-20T00:07:33.773Z,982.74
2018-01-20T00:09:28.321Z,982.70
2018-01-20T00:10:28.202Z,982.70
2018-01-20T00:12:22.034Z,982.71
2018-01-20T00:13:21.955Z,982.74
2018-01-20T00:15:16.232Z,982.71
2018-01-20T00:16:16.126Z,982.80
2018-01-20T00:18:10.393Z,982.77
2018-01-20T00:19:10.301Z,982.77
2018-01-20T00:21:04.622Z,982.74
2018-01-20T00:22:04.540Z,982.75
2018-01-20T00:23:58.843Z,982.77
2018-01-20T00:24:58.813Z,982.79
2018-01-20T00:26:51.353Z,982.73
2018-01-20T00:27:51.387Z,982.76
2018-01-20T00:29:44.500Z,982.71
2018-01-20T00:30:44.315Z,982.68
2018-01-20T00:32:37.913Z,982.69
2018-01-20T00:33:37.155Z,982.68
2018-01-20T00:35:31.012Z,982.68
2018-01-20T00:36:30.925Z,982.65
2018-01-20T00:38:25.414Z,982.63
2018-01-20T00:39:24.921Z,982.66
2018-01-20T00:41:18.178Z,982.62
2018-01-20T00:42:17.753Z,982.63
2018-01-20T00:44:10.532Z,982.64
2018-01-20T00:45:10.431Z,982.64
2018-01-20T00:47:03.254Z,982.62
2018-01-20T00:48:03.366Z,982.59
2018-01-20T00:49:56.879Z,982.59
2018-01-20T00:50:55.955Z,982.63
2018-01-20T00:52:49.277Z,982.66
2018-01-20T00:53:48.784Z,982.65
2018-01-20T00:55:41.825Z,982.70
2018-01-20T00:56:41.433Z,982.69
2018-01-20T00:58:34.268Z,982.67
2018-01-20T00:59:34.173Z,982.69
2018-01-20T01:01:27.049Z,982.64
2018-01-20T01:02:26.911Z,982.62
2018-01-20T01:04:19.759Z,982.65
2018-01-20T01:05:19.664Z,982.67
2018-01-20T01:07:12.854Z,982.63
2018-01-20T01:08:12.432Z,982.64
2018-01-20T01:10:05.767Z,982.58
2018-01-20T01:11:05.686Z,982.59
2018-01-20T01:12:58.535Z,982.60
2018-01-20T01:13:58.421Z,982.56
2018-01-20T01:15:52.675Z,982.60
2018-01-20T01:16:52.580Z,982.63
2018-01-20T01:18:46.956Z,982.65
2018-01-20T01:19:46.991Z,982.66
2018-01-20T01:21:39.448Z,982.71
2018-01-20T01:22:39.342Z,982.65
2018-01-20T01:24:32.197Z,982.67
2018-01-20T01:25:32.087Z,982.57
2018-01-20T01:27:24.922Z,982.59
2018-01-20T01:28:24.904Z,982.62
2018-01-20T01:30:17.707Z,982.59
2018-01-20T01:31:17.583Z,982.64
2018-01-20T01:33:10.420Z,982.58
2018-01-20T01:34:10.336Z,982.60
2018-01-20T01:36:03.495Z,982.65
2018-01-20T01:37:03.473Z,982.62
2018-01-20T01:38:56.613Z,982.62
2018-01-20T01:39:55.858Z,982.58
2018-01-20T01:41:48.700Z,982.61
2018-01-20T01:42:48.992Z,982.62
2018-01-20T01:44:41.455Z,982.58
2018-01-20T01:45:41.706Z,982.55
2018-01-20T01:47:34.313Z,982.56
2018-01-20T01:48:34.078Z,982.54
2018-01-20T01:50:27.328Z,982.58
2018-01-20T01:51:27.092Z,982.59
2018-01-20T01:53:20.459Z,982.59
2018-01-20T01:54:19.575Z,982.63
2018-01-20T01:56:12.998Z,982.62
2018-01-20T01:57:12.397Z,982.57
2018-01-20T01:59:05.604Z,982.63
2018-01-20T02:00:05.378Z,982.62
2018-01-20T02:01:58.543Z,982.63
2018-01-20T02:02:58.068Z,982.62
2018-01-20T02:04:51.819Z,982.58
2018-01-20T02:05:51.290Z,982.58
2018-01-20T02:07:43.876Z,982.54
2018-01-20T02:08:43.708Z,982.59
2018-01-20T02:10:36.492Z,982.52
2018-01-20T02:11:36.543Z,982.53
2018-01-20T02:13:29.657Z,982.43
2018-01-20T02:14:29.412Z,982.40
2018-01-20T02:16:22.647Z,982.39
2018-01-20T02:17:22.069Z,982.39
2018-01-20T02:19:16.146Z,982.36
2018-01-20T02:20:16.063Z,982.33
2018-01-20T02:22:11.351Z,982.32
2018-01-20T02:23:11.259Z,982.36
2018-01-20T02:25:06.674Z,982.36
2018-01-20T02:26:06.482Z,982.37
2018-01-20T02:27:59.768Z,982.35
2018-01-20T02:28:59.631Z,982.34
2018-01-20T02:30:53.546Z,982.36
2018-01-20T02:31:53.477Z,982.32
2018-01-20T02:33:48.050Z,982.23
2018-01-20T02:34:47.510Z,982.22
2018-01-20T02:36:41.754Z,982.17
2018-01-20T02:37:41.672Z,982.12
2018-01-20T02:39:35.685Z,982.16
2018-01-20T02:40:35.903Z,982.20
2018-01-20T02:42:29.011Z,982.29
2018-01-20T02:43:29.325Z,982.24
2018-01-20T02:45:22.188Z,982.23
2018-01-20T02:46:21.992Z,982.22
2018-01-20T02:48:15.188Z,982.16
2018-01-20T02:49:14.789Z,982.18
2018-01-20T02:51:07.663Z,982.11
2018-01-20T02:52:07.469Z,982.10
2018-01-20T02:54:00.111Z,982.08
2018-01-20T02:55:00.076Z,982.10
2018-01-20T02:56:54.282Z,982.19
2018-01-20T02:57:53.185Z,982.18
2018-01-20T02:59:45.638Z,982.19
2018-01-20T03:00:45.542Z,982.13
2018-01-20T03:02:38.785Z,982.13
2018-01-20T03:03:38.667Z,982.14
2018-01-20T03:05:31.101Z,982.13
2018-01-20T03:06:31.027Z,982.13
2018-01-20T03:08:24.281Z,982.14
2018-01-20T03:09:23.784Z,982.08
2018-01-20T03:11:16.673Z,982.08
2018-01-20T03:12:16.556Z,982.10
2018-01-20T03:14:09.989Z,982.04
2018-01-20T03:15:09.274Z,982.10
2018-01-20T03:17:02.668Z,981.93
2018-01-20T03:18:02.611Z,981.89
2018-01-20T03:19:55.073Z,981.87
2018-01-20T03:20:55.184Z,981.86
2018-01-20T03:22:49.048Z,981.88
2018-01-20T03:23:48.971Z,981.84
2018-01-20T03:25:46.540Z,981.83
2018-01-20T03:28:00.646Z,981.88
2018-01-20T03:29:00.577Z,981.84
2018-01-20T03:31:14.512Z,981.93
2018-01-20T03:32:13.989Z,981.98
2018-01-20T03:34:10.305Z,981.98
2018-01-20T03:35:09.967Z,981.99
2018-01-20T03:37:05.107Z,981.97
2018-01-20T03:38:04.190Z,982.01
2018-01-20T03:39:58.447Z,981.98
2018-01-20T03:40:58.356Z,981.96
2018-01-20T03:42:52.905Z,981.95
2018-01-20T03:43:52.596Z,981.94
2018-01-20T03:45:45.241Z,981.96
2018-01-20T03:46:45.135Z,981.97
2018-01-20T03:48:38.361Z,981.94
2018-01-20T03:49:38.152Z,981.96
2018-01-20T03:51:30.691Z,982.05
2018-01-20T03:52:30.920Z,982.02
2018-01-20T03:54:23.464Z,981.97
2018-01-20T03:55:23.752Z,982.01
2018-01-20T03:57:16.193Z,982.03
2018-01-20T03:58:16.099Z,982.07
2018-01-20T04:00:09.297Z,982.02
2018-01-20T04:01:08.860Z,982.05
2018-01-20T04:03:01.735Z,981.98
2018-01-20T04:04:01.605Z,981.95
2018-01-20T04:05:55.890Z,981.93
2018-01-20T04:06:55.781Z,981.93
2018-01-20T04:08:49.753Z,981.95
2018-01-20T04:09:49.668Z,981.95
2018-01-20T04:11:42.506Z,981.93
2018-01-20T04:12:42.411Z,981.92
2018-01-20T04:14:35.270Z,981.93
2018-01-20T04:15:35.153Z,981.84
2018-01-20T04:17:28.023Z,981.87
2018-01-20T04:18:27.906Z,981.89
2018-01-20T04:20:21.149Z,981.85
2018-01-20T04:21:20.666Z,981.88
2018-01-20T04:23:14.926Z,981.84
2018-01-20T04:24:14.814Z,981.86
2018-01-20T04:26:10.026Z,981.90
2018-01-20T04:27:08.722Z,981.86
2018-01-20T04:29:01.990Z,981.83
2018-01-20T04:30:01.639Z,981.86
2018-01-20T04:31:54.313Z,981.81
2018-01-20T04:32:54.359Z,981.78
2018-01-20T04:34:47.098Z,981.77
2018-01-20T04:35:47.210Z,981.74
2018-01-20T04:37:41.196Z,981.71
2018-01-20T04:38:41.110Z,981.69
2018-01-20T04:40:35.768Z,981.70
2018-01-20T04:41:35.651Z,981.71
2018-01-20T04:43:28.668Z,981.64
2018-01-20T04:44:28.800Z,981.61
2018-01-20T04:46:21.606Z,981.53
2018-01-20T04:47:21.139Z,981.60
2018-01-20T04:49:14.383Z,981.63
2018-01-20T04:50:13.901Z,981.51
2018-01-20T04:52:07.577Z,981.53
2018-01-20T04:53:06.975Z,981.59
2018-01-20T04:55:01.886Z,981.53
2018-01-20T04:56:01.815Z,981.48
2018-01-20T04:57:56.105Z,981.50
2018-01-20T04:58:55.974Z,981.53
2018-01-20T05:00:50.012Z,981.51
2018-01-20T05:01:50.233Z,981.54
2018-01-20T05:03:43.388Z,981.51
2018-01-20T05:04:42.875Z,981.51
2018-01-20T05:06:36.319Z,981.45
2018-01-20T05:07:35.519Z,981.52
2018-01-20T05:09:28.797Z,981.42
2018-01-20T05:10:28.677Z,981.38
2018-01-20T05:12:21.808Z,981.45
2018-01-20T05:13:21.543Z,981.44
2018-01-20T05:15:15.037Z,981.48
2018-01-20T05:16:14.665Z,981.46
2018-01-20T05:18:07.410Z,981.38
2018-01-20T05:19:07.607Z,981.37
2018-01-20T05:21:00.076Z,981.35
2018-01-20T05:21:59.923Z,981.34
2018-01-20T05:23:53.161Z,981.35
2018-01-20T05:24:52.736Z,981.34
2018-01-20T05:26:45.462Z,981.37
2018-01-20T05:27:45.282Z,981.32
2018-01-20T05:29:38.471Z,981.30
2018-01-20T05:30:38.275Z,981.32
2018-01-20T05:32:31.314Z,981.28
2018-01-20T05:33:30.881Z,981.24
2018-01-20T05:35:24.103Z,981.27
2018-01-20T05:36:24.019Z,981.29
2018-01-20T05:38:17.002Z,981.27
2018-01-20T05:39:16.430Z,981.28
2018-01-20T05:41:09.412Z,981.28
2018-01-20T05:42:09.324Z,981.30
2018-01-20T05:44:02.842Z,981.32
2018-01-20T05:45:02.076Z,981.33
2018-01-20T05:46:55.325Z,981.40
2018-01-20T05:47:55.221Z,981.40
2018-01-20T05:49:48.114Z,981.37
2018-01-20T05:50:47.622Z,981.40
2018-01-20T05:52:41.013Z,981.40
2018-01-20T05:53:40.325Z,981.40
2018-01-20T05:55:33.184Z,981.40
2018-01-20T05:56:33.112Z,981.38
2018-01-20T05:58:25.916Z,981.36
2018-01-20T05:59:25.825Z,981.39
2018-01-20T06:01:19.252Z,981.46
2018-01-20T06:02:19.103Z,981.48
2018-01-20T06:04:11.969Z,981.41
2018-01-20T06:05:12.024Z,981.39
2018-01-20T06:07:04.710Z,981.37
2018-01-20T06:08:04.979Z,981.37
2018-01-20T06:09:58.435Z,981.37
2018-01-20T06:10:57.689Z,981.33
2018-01-20T06:12:51.168Z,981.36
2018-01-20T06:13:50.509Z,981.31
2018-01-20T06:15:43.613Z,981.37
2018-01-20T06:16:43.138Z,981.34
2018-01-20T06:18:36.337Z,981.38
2018-01-20T06:19:36.200Z,981.35
2018-01-20T06:21:29.643Z,981.30
2018-01-20T06:22:29.007Z,981.33
2018-01-20T06:24:22.066Z,981.32
2018-01-20T06:25:22.132Z,981.29
2018-01-20T06:27:15.325Z,981.24
2018-01-20T06:28:14.637Z,981.27
2018-01-20T06:30:08.263Z,981.31
2018-01-20T06:31:08.102Z,981.32
2018-01-20T06:33:00.955Z,981.30
2018-01-20T06:34:00.955Z,981.30
2018-01-20T06:35:53.437Z,981.33
2018-01-20T06:36:53.601Z,981.32
2018-01-20T06:38:47.589Z,981.30
2018-01-20T06:39:47.491Z,981.34
2018-01-20T06:41:42.398Z,981.36
2018-01-20T06:42:41.940Z,981.35
2018-01-20T06:44:34.942Z,981.33
2018-01-20T06:45:34.920Z,981.29
2018-01-20T06:47:28.275Z,981.25
2018-01-20T06:48:27.793Z,981.22
2018-01-20T06:50:20.685Z,981.06
2018-01-20T06:51:20.518Z,981.11
2018-01-20T06:53:25.713Z,981.12
2018-01-20T06:54:25.584Z,981.10
2018-01-20T06:56:18.432Z,981.10
2018-01-20T06:57:18.325Z,981.15
2018-01-20T06:59:11.186Z,981.13
2018-01-20T07:00:11.496Z,981.11
2018-01-20T07:02:06.878Z,981.14
2018-01-20T07:03:06.797Z,981.18
2018-01-20T07:05:01.067Z,981.15
2018-01-20T07:06:00.990Z,981.14
2018-01-20T07:07:55.035Z,981.18
2018-01-20T07:08:54.960Z,981.16
2018-01-20T07:10:49.242Z,981.12
2018-01-20T07:11:49.117Z,981.21
2018-01-20T07:13:43.412Z,981.12
2018-01-20T07:14:43.314Z,981.13
2018-01-20T07:16:39.195Z,981.14
2018-01-20T07:17:38.726Z,981.20
2018-01-20T07:19:31.668Z,981.19
2018-01-20T07:20:31.585Z,981.23
2018-01-20T07:22:24.951Z,981.21
2018-01-20T07:23:24.853Z,981.19
2018-01-20T07:25:17.844Z,981.19
2018-01-20T07:26:17.719Z,981.20
2018-01-20T07:28:11.949Z,981.20
2018-01-20T07:29:11.846Z,981.25
2018-01-20T07:31:05.858Z,981.24
2018-01-20T07:32:05.762Z,981.23
2018-01-20T07:33:59.030Z,981.23
2018-01-20T07:34:58.507Z,981.23
2018-01-20T07:36:51.698Z,981.20
2018-01-20T07:37:51.258Z,981.19
2018-01-20T07:39:45.502Z,981.23
2018-01-20T07:40:45.405Z,981.25
2018-01-20T07:42:39.703Z,981.23
2018-01-20T07:43:39.210Z,981.22
2018-01-20T07:45:33.383Z,981.20
2018-01-20T07:46:32.782Z,981.22
2018-01-20T07:48:25.207Z,981.22
2018-01-20T07:49:25.524Z,981.26
2018-01-20T07:51:18.017Z,981.21
2018-01-20T07:52:18.262Z,981.19
2018-01-20T07:54:12.136Z,981.22
2018-01-20T07:55:12.037Z,981.19
2018-01-20T07:57:05.271Z,981.22
2018-01-20T07:58:05.167Z,981.19
2018-01-20T07:59:59.533Z,981.22
2018-01-20T08:00:59.472Z,981.22
2018-01-20T08:02:51.972Z,981.25
2018-01-20T08:03:51.935Z,981.26
2018-01-20T08:05:44.679Z,981.27
2018-01-20T08:06:44.888Z,981.20
2018-01-20T08:08:37.671Z,981.23
2018-01-20T08:09:37.486Z,981.26
2018-01-20T08:11:31.563Z,981.23
2018-01-20T08:12:31.469Z,981.25
2018-01-20T08:14:25.924Z,981.25
2018-01-20T08:15:25.405Z,981.22
2018-01-20T08:17:19.670Z,981.17
2018-01-20T08:18:18.515Z,981.18
2018-01-20T08:20:12.393Z,981.14
2018-01-20T08:21:12.313Z,981.12
2018-01-20T08:23:06.767Z,981.16
2018-01-20T08:24:06.513Z,981.17
2018-01-20T08:26:00.799Z,981.17
2018-01-20T08:27:00.717Z,981.20
2018-01-20T08:28:54.953Z,981.18
2018-01-20T08:29:54.858Z,981.13
2018-01-20T08:31:49.175Z,981.22
2018-01-20T08:32:48.943Z,981.16
2018-01-20T08:34:42.883Z,981.16
2018-01-20T08:35:42.812Z,981.14
2018-01-20T08:37:36.093Z,981.16
2018-01-20T08:38:35.986Z,981.09
2018-01-20T08:40:30.402Z,981.12
2018-01-20T08:41:30.295Z,981.12
2018-01-20T08:43:24.346Z,981.09
2018-01-20T08:44:24.288Z,981.10
2018-01-20T08:46:20.109Z,981.03
2018-01-20T08:47:19.900Z,981.08
2018-01-20T08:49:13.162Z,981.05
2018-01-20T08:50:13.028Z,981.07
2018-01-20T08:52:07.054Z,981.05
2018-01-20T08:53:07.105Z,981.05
2018-01-20T08:55:01.023Z,981.03
2018-01-20T08:56:00.860Z,981.00
2018-01-20T08:57:55.615Z,981.03
2018-01-20T08:58:55.167Z,981.09
2018-01-20T09:00:49.093Z,981.03
2018-01-20T09:01:48.933Z,981.11
2018-01-20T09:03:44.044Z,981.15
2018-01-20T09:04:43.978Z,981.15
2018-01-20T09:06:36.760Z,981.10
2018-01-20T09:07:36.758Z,981.03
2018-01-20T09:09:30.140Z,981.01
2018-01-20T09:10:29.676Z,980.96
2018-01-20T09:12:22.926Z,980.96
2018-01-20T09:13:22.634Z,980.95
2018-01-20T09:15:16.649Z,980.94
2018-01-20T09:16:16.570Z,980.98
2018-01-20T09:18:10.848Z,980.95
2018-01-20T09:19:10.744Z,980.94
2018-01-20T09:21:05.392Z,980.90
2018-01-20T09:22:04.783Z,980.89
2018-01-20T09:23:57.503Z,980.88
2018-01-20T09:24:57.679Z,980.87
2018-01-20T09:26:51.689Z,980.89
2018-01-20T09:27:51.585Z,980.91
2018-01-20T09:29:46.467Z,980.91
2018-01-20T09:30:45.449Z,980.92
2018-01-20T09:32:39.682Z,980.94
2018-01-20T09:33:39.591Z,980.96
2018-01-20T09:35:33.731Z,980.96
2018-01-20T09:36:33.611Z,980.91
2018-01-20T09:38:26.456Z,980.96
2018-01-20T09:39:26.358Z,980.93
2018-01-20T09:41:19.239Z,980.90
2018-01-20T09:42:19.104Z,980.89
2018-01-20T09:44:11.948Z,980.89
2018-01-20T09:45:11.858Z,980.88
2018-01-20T09:47:04.828Z,980.87
2018-01-20T09:48:04.708Z,980.86
2018-01-20T09:49:57.558Z,980.86
2018-01-20T09:50:57.460Z,980.88
2018-01-20T09:52:50.359Z,980.86
2018-01-20T09:53:50.212Z,980.79
2018-01-20T09:55:43.157Z,980.74
2018-01-20T09:56:43.207Z,980.78
2018-01-20T09:58:36.228Z,980.81
2018-01-20T09:59:35.837Z,980.88
2018-01-20T10:01:28.779Z,980.91
2018-01-20T10:02:28.673Z,980.90
2018-01-20T10:04:22.060Z,980.89
2018-01-20T10:05:21.531Z,980.91
2018-01-20T10:07:14.872Z,980.88
2018-01-20T10:08:14.663Z,980.80
2018-01-20T10:10:07.919Z,980.78
2018-01-20T10:11:07.881Z,980.75
2018-01-20T10:13:00.882Z,980.72
2018-01-20T10:14:00.494Z,980.71
2018-01-20T10:15:54.724Z,980.72
2018-01-20T10:16:54.619Z,980.66
2018-01-20T10:18:49.469Z,980.65
2018-01-20T10:19:49.758Z,980.63
2018-01-20T10:21:43.610Z,980.63
2018-01-20T10:22:43.527Z,980.63
2018-01-20T10:24:37.764Z,980.62
2018-01-20T10:25:37.683Z,980.64
2018-01-20T10:27:32.298Z,980.67
2018-01-20T10:28:32.138Z,980.64
2018-01-20T10:30:25.195Z,980.68
2018-01-20T10:31:24.941Z,980.68
2018-01-20T10:33:18.344Z,980.64
2018-01-20T10:34:17.520Z,980.63
2018-01-20T10:36:11.239Z,980.61
2018-01-20T10:37:10.392Z,980.65
2018-01-20T10:39:04.477Z,980.60
2018-01-20T10:40:03.213Z,980.60
2018-01-20T10:41:57.480Z,980.61
2018-01-20T10:42:57.372Z,980.60
2018-01-20T10:44:51.554Z,980.49
2018-01-20T10:45:51.391Z,980.52
2018-01-20T10:47:44.752Z,980.50
2018-01-20T10:48:44.356Z,980.50
2018-01-20T10:50:38.485Z,980.47
2018-01-20T10:51:38.366Z,980.50
2018-01-20T10:53:32.631Z,980.40
2018-01-20T10:54:32.550Z,980.43
2018-01-20T10:56:26.831Z,980.42
2018-01-20T10:57:26.385Z,980.36
2018-01-20T10:59:19.746Z,980.37
2018-01-20T11:00:19.244Z,980.32
2018-01-20T11:02:12.480Z,980.36
2018-01-20T11:03:12.069Z,980.31
2018-01-20T11:05:05.435Z,980.34
2018-01-20T11:06:05.316Z,980.32
2018-01-20T11:07:59.260Z,980.29
2018-01-20T11:08:59.137Z,980.25
2018-01-20T11:10:53.583Z,980.19
2018-01-20T11:11:53.124Z,980.23
2018-01-20T11:13:46.888Z,980.22
2018-01-20T11:14:46.243Z,980.26
2018-01-20T11:16:38.910Z,980.20
2018-01-20T11:17:39.188Z,980.15
2018-01-20T11:19:31.944Z,980.11
2018-01-20T11:20:31.638Z,980.14
2018-01-20T11:22:25.315Z,980.07
2018-01-20T11:23:24.659Z,980.11
2018-01-20T11:25:17.866Z,980.02
2018-01-20T11:26:17.684Z,980.01
2018-01-20T11:28:10.809Z,980.01
2018-01-20T11:29:11.236Z,980.00
2018-01-20T11:31:04.483Z,979.96
2018-01-20T11:32:04.357Z,979.96
2018-01-20T11:33:59.578Z,979.89
2018-01-20T11:34:58.274Z,979.92
2018-01-20T11:36:51.614Z,979.84
2018-01-20T11:37:51.235Z,979.83
2018-01-20T11:39:44.063Z,979.85
2018-01-20T11:40:43.983Z,979.81
2018-01-20T11:42:38.233Z,979.80
2018-01-20T11:43:38.121Z,979.77
2018-01-20T11:45:32.801Z,979.76
2018-01-20T11:46:32.516Z,979.78
2018-01-20T11:48:25.600Z,979.77
2018-01-20T11:49:25.889Z,979.76
2018-01-20T11:51:19.736Z,979.68
2018-01-20T11:52:19.656Z,979.68
2018-01-20T11:54:14.061Z,979.66
2018-01-20T11:55:13.860Z,979.62
2018-01-20T11:57:06.885Z,979.56
2018-01-20T11:58:07.550Z,979.58
2018-01-20T12:00:00.420Z,979.52
2018-01-20T12:01:00.551Z,979.50
2018-01-20T12:02:53.334Z,979.48
2018-01-20T12:03:53.417Z,979.43
2018-01-20T12:05:45.999Z,979.42
2018-01-20T12:06:45.954Z,979.43
2018-01-20T12:08:39.733Z,979.42
2018-01-20T12:09:38.731Z,979.46
2018-01-20T12:11:32.094Z,979.42
2018-01-20T12:12:31.599Z,979.43
2018-01-20T12:14:24.763Z,979.40
2018-01-20T12:15:24.618Z,979.38
2018-01-20T12:17:17.404Z,979.40
2018-01-20T12:18:17.289Z,979.38
2018-01-20T12:20:10.240Z,979.34
2018-01-20T12:21:10.168Z,979.34
2018-01-20T12:23:03.108Z,979.26
2018-01-20T12:24:02.985Z,979.28
2018-01-20T12:25:55.949Z,979.22
2018-01-20T12:26:55.845Z,979.22
2018-01-20T12:28:48.793Z,979.18
2018-01-20T12:29:48.690Z,979.17
2018-01-20T12:31:41.629Z,979.20
2018-01-20T12:32:42.459Z,979.19
2018-01-20T12:34:34.513Z,979.11
2018-01-20T12:35:34.395Z,979.06
2018-01-20T12:37:27.343Z,979.06
2018-01-20T12:38:27.265Z,979.03
2018-01-20T12:40:20.200Z,978.99
2018-01-20T12:41:20.102Z,978.95
2018-01-20T12:43:13.045Z,978.97
2018-01-20T12:44:13.234Z,978.94
2018-01-20T12:46:05.922Z,978.95
2018-01-20T12:47:05.800Z,978.91
2018-01-20T12:48:58.796Z,978.93
2018-01-20T12:49:58.652Z,978.83
2018-01-20T12:51:51.611Z,978.81
2018-01-20T12:52:51.715Z,978.80
2018-01-20T12:54:44.839Z,978.72
2018-01-20T12:55:44.633Z,978.74
2018-01-20T12:57:37.336Z,978.68
2018-01-20T12:58:37.613Z,978.67
2018-01-20T13:00:30.870Z,978.63
2018-01-20T13:01:30.418Z,978.59
2018-01-20T13:03:23.026Z,978.58
2018-01-20T13:04:24.225Z,978.57
2018-01-20T13:06:15.900Z,978.61
2018-01-20T13:07:17.066Z,978.59
2018-01-20T13:09:08.882Z,978.57
2018-01-20T13:10:09.918Z,978.56
2018-01-20T13:12:02.853Z,978.53
2018-01-20T13:13:02.776Z,978.55
2018-01-20T13:14:57.195Z,978.48
2018-01-20T13:15:57.617Z,978.50
2018-01-20T13:17:49.926Z,978.45
2018-01-20T13:18:49.634Z,978.40
2018-01-20T13:20:42.894Z,978.39
2018-01-20T13:21:42.180Z,978.39
2018-01-20T13:23:35.147Z,978.38
2018-01-20T13:24:34.962Z,978.38
2018-01-20T13:26:27.929Z,978.40
2018-01-20T13:27:28.003Z,978.37
2018-01-20T13:29:20.877Z,978.33
2018-01-20T13:30:20.531Z,978.32
2018-01-20T13:32:13.809Z,978.31
2018-01-20T13:33:13.282Z,978.32
2018-01-20T13:35:07.246Z,978.27
2018-01-20T13:36:07.128Z,978.30
2018-01-20T13:37:59.609Z,978.27
2018-01-20T13:38:59.909Z,978.25
2018-01-20T13:40:52.717Z,978.19
2018-01-20T13:41:52.642Z,978.16
2018-01-20T13:43:46.556Z,978.20
2018-01-20T13:44:46.491Z,978.17
2018-01-20T13:46:40.738Z,978.14
2018-01-20T13:47:40.404Z,978.15
2018-01-20T13:49:33.684Z,978.14
2018-01-20T13:50:33.202Z,978.10
2018-01-20T13:52:26.077Z,978.09
2018-01-20T13:53:25.989Z,978.08
2018-01-20T13:55:18.854Z,978.05
2018-01-20T13:56:18.923Z,978.02
2018-01-20T13:58:11.654Z,977.95
2018-01-20T13:59:11.806Z,977.97
2018-01-20T14:01:04.265Z,977.96
2018-01-20T14:02:04.156Z,977.94
2018-01-20T14:03:56.988Z,977.94
2018-01-20T14:04:57.268Z,977.91
2018-01-20T14:06:50.527Z,977.83
2018-01-20T14:07:50.037Z,977.84
2018-01-20T14:09:43.876Z,977.86
2018-01-20T14:10:43.795Z,977.87
2018-01-20T14:12:37.937Z,977.88
2018-01-20T14:13:37.814Z,977.85
2018-01-20T14:15:32.072Z,977.80
2018-01-20T14:16:31.978Z,977.81
2018-01-20T14:18:25.997Z,977.77
2018-01-20T14:19:25.934Z,977.79
2018-01-20T14:21:18.753Z,977.81
2018-01-20T14:22:18.616Z,977.77
2018-01-20T14:24:11.904Z,977.73
2018-01-20T14:25:11.778Z,977.68
2018-01-20T14:27:06.010Z,977.62
2018-01-20T14:28:05.919Z,977.59
2018-01-20T14:30:00.189Z,977.59
2018-01-20T14:31:00.155Z,977.62
2018-01-20T14:32:54.461Z,977.65
2018-01-20T14:33:54.310Z,977.57
2018-01-20T14:35:48.212Z,977.57
2018-01-20T14:36:48.115Z,977.54
2018-01-20T14:38:41.357Z,977.49
2018-01-20T14:39:40.870Z,977.47
2018-01-20T14:41:33.804Z,977.45
2018-01-20T14:42:33.598Z,977.44
2018-01-20T14:44:27.799Z,977.41
2018-01-20T14:45:27.294Z,977.34
2018-01-20T14:47:21.549Z,977.38
2018-01-20T14:48:21.432Z,977.37
2018-01-20T14:50:15.695Z,977.35
2018-01-20T14:51:15.610Z,977.38
2018-01-20T14:53:09.653Z,977.34
2018-01-20T14:54:09.920Z,977.36
2018-01-20T14:56:03.185Z,977.39
2018-01-20T14:57:02.737Z,977.37
2018-01-20T14:58:55.584Z,977.38
2018-01-20T14:59:55.763Z,977.34
2018-01-20T15:01:50.278Z,977.33
2018-01-20T15:02:49.620Z,977.31
2018-01-20T15:04:43.780Z,977.34
2018-01-20T15:05:43.491Z,977.35
2018-01-20T15:07:37.733Z,977.30
2018-01-20T15:08:37.656Z,977.31
2018-01-20T15:10:31.912Z,977.32
2018-01-20T15:11:31.811Z,977.31
2018-01-20T15:13:25.090Z,977.27
2018-01-20T15:14:25.005Z,977.28
2018-01-20T15:16:19.333Z,977.30
2018-01-20T15:17:19.207Z,977.29
2018-01-20T15:19:13.465Z,977.30
2018-01-20T15:20:13.413Z,977.23
2018-01-20T15:22:07.671Z,977.20
2018-01-20T15:23:08.215Z,977.24
2018-01-20T15:25:01.527Z,977.20
2018-01-20T15:26:01.443Z,977.16
2018-01-20T15:27:55.697Z,977.16
2018-01-20T15:28:55.601Z,977.11
2018-01-20T15:30:49.910Z,977.13
2018-01-20T15:31:49.807Z,977.07
2018-01-20T15:33:44.122Z,977.03
2018-01-20T15:34:43.993Z,977.02
2018-01-20T15:36:38.234Z,977.00
2018-01-20T15:37:38.144Z,976.93
2018-01-20T15:39:32.996Z,976.90
2018-01-20T15:40:32.856Z,976.88
2018-01-20T15:42:25.592Z,976.85
2018-01-20T15:43:25.205Z,976.82
2018-01-20T15:45:18.618Z,976.80
2018-01-20T15:46:18.197Z,976.82
2018-01-20T15:48:11.577Z,976.81
2018-01-20T15:49:10.759Z,976.82
2018-01-20T15:51:04.999Z,976.82
2018-01-20T15:52:04.885Z,976.80
2018-01-20T15:53:59.147Z,976.79
2018-01-20T15:54:59.060Z,976.78
2018-01-20T15:56:52.314Z,976.72
2018-01-20T15:57:52.197Z,976.73
2018-01-20T15:59:46.726Z,976.68
2018-01-20T16:00:46.396Z,976.69
2018-01-20T16:02:39.354Z,976.67
2018-01-20T16:03:39.194Z,976.68
2018-01-20T16:05:32.059Z,976.66
2018-01-20T16:06:31.737Z,976.62
2018-01-20T16:08:24.526Z,976.60
2018-01-20T16:09:24.640Z,976.55
2018-01-20T16:11:17.598Z,976.61
2018-01-20T16:12:17.503Z,976.56
2018-01-20T16:14:11.379Z,976.56
2018-01-20T16:15:11.239Z,976.51
2018-01-20T16:17:05.599Z,976.44
2018-01-20T16:18:05.456Z,976.45
2018-01-20T16:19:59.301Z,976.44
2018-01-20T16:20:59.211Z,976.46
2018-01-20T16:22:53.320Z,976.41
2018-01-20T16:23:53.217Z,976.45
2018-01-20T16:25:46.464Z,976.44
2018-01-20T16:26:45.985Z,976.43
2018-01-20T16:28:40.258Z,976.40
2018-01-20T16:29:40.155Z,976.41
2018-01-20T16:31:34.437Z,976.37
2018-01-20T16:32:34.310Z,976.36
2018-01-20T16:34:27.578Z,976.33
2018-01-20T16:35:27.488Z,976.27
2018-01-20T16:37:21.682Z,976.28
2018-01-20T16:38:21.494Z,976.25
2018-01-20T16:40:15.721Z,976.25
2018-01-20T16:41:15.632Z,976.24
2018-01-20T16:43:09.652Z,976.22
2018-01-20T16:44:09.901Z,976.21
2018-01-20T16:46:03.778Z,976.19
2018-01-20T16:47:03.686Z,976.17
2018-01-20T16:48:58.051Z,976.17
2018-01-20T16:49:57.932Z,976.16
2018-01-20T16:51:51.929Z,976.15
2018-01-20T16:52:51.838Z,976.13
2018-01-20T16:54:45.981Z,976.20
2018-01-20T16:55:45.879Z,976.11
2018-01-20T16:57:40.137Z,976.13
2018-01-20T16:58:40.040Z,976.14
2018-01-20T17:00:34.338Z,976.14
2018-01-20T17:01:34.233Z,976.10
2018-01-20T17:03:28.509Z,976.09
2018-01-20T17:04:28.414Z,976.07
2018-01-20T17:06:22.911Z,976.09
2018-01-20T17:07:22.802Z,976.08
2018-01-20T17:09:17.169Z,976.10
2018-01-20T17:10:17.071Z,976.08
2018-01-20T17:12:11.340Z,976.10
2018-01-20T17:13:11.221Z,976.11
2018-01-20T17:15:04.477Z,976.06
2018-01-20T17:16:04.390Z,976.06
2018-01-20T17:17:58.684Z,976.00
2018-01-20T17:18:58.569Z,975.96
2018-01-20T17:20:52.830Z,975.97
2018-01-20T17:21:52.727Z,975.96
2018-01-20T17:23:50.167Z,975.98
2018-01-20T17:24:50.037Z,975.97
2018-01-20T17:26:44.932Z,975.96
2018-01-20T17:27:44.482Z,975.95
2018-01-20T17:29:37.673Z,975.92
2018-01-20T17:30:37.174Z,975.92
2018-01-20T17:32:30.018Z,975.95
2018-01-20T17:33:29.922Z,975.94
2018-01-20T17:35:24.189Z,975.96
2018-01-20T17:36:24.079Z,975.96
2018-01-20T17:38:18.409Z,975.89
2018-01-20T17:39:18.320Z,975.86
2018-01-20T17:41:12.608Z,975.90
2018-01-20T17:42:12.501Z,975.84
2018-01-20T17:44:05.763Z,975.85
2018-01-20T17:45:05.668Z,975.85
2018-01-20T17:46:59.951Z,975.87
2018-01-20T17:47:59.812Z,975.81
2018-01-20T17:49:53.106Z,975.83
2018-01-20T17:50:53.031Z,975.85
2018-01-20T17:52:47.313Z,975.85
2018-01-20T17:53:47.193Z,975.86
2018-01-20T17:55:42.366Z,975.88
2018-01-20T17:56:41.346Z,975.90
2018-01-20T17:58:35.617Z,975.91
2018-01-20T17:59:35.542Z,975.94
2018-01-20T18:01:30.356Z,975.93
2018-01-20T18:02:29.825Z,975.91